Time;durP1;ratioP1;P1;durP2;ratioP2;P2;SDS_P1;SDS_P2;PMS_P1;PMS_P2;Temp;Humidity;BMP_temperature;BMP_pressure;BME280_temperature;BME280_humidity;BME280_pressure;Samples;Min_cycle;Max_cycle;Signal;HPM_P1;HPM_P2
2022/01/10 00:01:16;;;;;;;2.05;0.65;;;1.70;96.00;;;;;;4987786;28;20045;-76
2022/01/10 00:03:44;;;;;;;2.47;0.60;;;1.70;96.00;;;;;;4971593;28;20044;-75
2022/01/10 00:06:11;;;;;;;2.38;0.70;;;1.70;96.00;;;;;;4978874;28;20410;-76
2022/01/10 00:08:38;;;;;;;2.33;0.70;;;1.70;96.00;;;;;;4980572;28;20042;-76
2022/01/10 00:11:05;;;;;;;1.23;0.60;;;1.70;96.00;;;;;;4991520;28;20042;-77
2022/01/10 00:13:32;;;;;;;2.53;0.70;;;1.70;96.00;;;;;;4997447;28;20854;-76
2022/01/10 00:15:59;;;;;;;1.73;0.70;;;1.70;96.00;;;;;;4988323;28;20065;-76
2022/01/10 00:18:26;;;;;;;1.57;0.70;;;1.60;96.00;;;;;;4987335;28;20117;-73
2022/01/10 00:20:54;;;;;;;1.90;0.67;;;1.60;96.00;;;;;;4987255;28;20057;-73
2022/01/10 00:23:21;;;;;;;2.67;0.80;;;1.60;96.00;;;;;;4982908;28;20450;-73
2022/01/10 00:25:51;;;;;;;1.87;0.70;;;1.60;96.00;;;;;;4977174;28;20041;-74
2022/01/10 00:28:20;;;;;;;1.23;0.50;;;1.60;96.00;;;;;;4984980;28;20042;-73
2022/01/10 00:30:47;;;;;;;1.33;0.50;;;1.60;96.00;;;;;;4976998;28;20057;-73
2022/01/10 00:33:14;;;;;;;2.00;0.50;;;1.60;96.00;;;;;;4988101;28;20042;-73
2022/01/10 00:35:41;;;;;;;2.50;0.50;;;1.60;96.00;;;;;;4990558;28;20053;-74
2022/01/10 00:38:08;;;;;;;1.98;0.80;;;1.50;96.00;;;;;;4970737;28;20166;-73
2022/01/10 00:40:35;;;;;;;2.35;0.85;;;1.50;96.00;;;;;;4968322;28;20057;-73
2022/01/10 00:43:02;;;;;;;2.90;0.70;;;1.50;96.00;;;;;;4966604;28;20112;-73
2022/01/10 00:45:29;;;;;;;1.98;0.70;;;1.50;96.00;;;;;;5004379;28;20662;-73
2022/01/10 00:47:59;;;;;;;2.25;0.80;;;1.50;96.00;;;;;;4957657;28;20153;-73
2022/01/10 00:50:28;;;;;;;3.30;0.80;;;1.50;96.00;;;;;;5001043;28;20037;-74
2022/01/10 00:52:57;;;;;;;2.73;0.90;;;1.40;96.00;;;;;;4993983;28;20056;-73
2022/01/10 00:55:24;;;;;;;2.70;0.70;;;1.50;96.00;;;;;;4978526;28;20081;-73
2022/01/10 00:57:51;;;;;;;1.83;0.67;;;1.40;96.00;;;;;;4979756;28;20053;-73
2022/01/10 01:00:18;;;;;;;2.50;0.87;;;1.50;96.00;;;;;;4981937;28;20131;-73
2022/01/10 01:02:46;;;;;;;2.47;0.90;;;1.40;96.00;;;;;;4973937;28;20050;-73
2022/01/10 01:05:16;;;;;;;2.60;0.80;;;1.40;96.00;;;;;;4970193;28;20133;-73
2022/01/10 01:07:43;;;;;;;1.73;0.60;;;1.40;96.00;;;;;;5004871;28;20049;-73
2022/01/10 01:13:33;;;;;;;2.60;0.60;;;1.40;96.00;;;;;;4981708;28;20128;-73
2022/01/10 01:24:05;;;;;;;2.30;0.70;;;1.40;96.10;;;;;;5005235;28;20042;-73
2022/01/10 01:26:33;;;;;;;1.60;0.70;;;1.30;96.00;;;;;;4982008;28;20076;-73
2022/01/10 01:29:01;;;;;;;1.48;0.63;;;1.30;96.00;;;;;;4990554;28;20053;-74
2022/01/10 01:31:28;;;;;;;2.15;0.65;;;1.30;96.10;;;;;;5008838;28;20049;-73
2022/01/10 01:33:55;;;;;;;1.53;0.53;;;1.30;96.00;;;;;;4971583;28;20099;-73
2022/01/10 01:36:24;;;;;;;1.33;0.70;;;1.30;96.00;;;;;;4967558;28;20508;-73
2022/01/10 01:38:53;;;;;;;3.17;0.80;;;1.30;96.10;;;;;;4988343;28;20446;-73
2022/01/10 01:43:55;;;;;;;1.80;0.80;;;1.30;96.10;;;;;;4991153;28;20049;-76
2022/01/10 01:46:22;;;;;;;2.07;0.83;;;1.30;96.10;;;;;;4992363;28;20412;-76
2022/01/10 01:48:56;;;;;;;1.90;0.67;;;1.30;96.10;;;;;;4990641;28;20050;-76
2022/01/10 01:51:26;;;;;;;1.93;0.67;;;1.30;96.10;;;;;;4976187;28;20092;-76
2022/01/10 01:53:53;;;;;;;1.60;0.70;;;1.20;96.00;;;;;;4963374;28;20096;-75
2022/01/10 01:56:21;;;;;;;2.43;0.83;;;1.20;96.00;;;;;;4972069;28;20585;-76
2022/01/10 01:58:52;;;;;;;1.60;0.80;;;1.20;96.00;;;;;;4995882;28;20068;-76
2022/01/10 02:01:20;;;;;;;2.08;1.10;;;1.20;96.00;;;;;;5000271;28;20048;-76
2022/01/10 02:03:49;;;;;;;2.10;0.97;;;1.20;96.10;;;;;;4970270;28;20869;-76
2022/01/10 02:06:22;;;;;;;1.80;0.80;;;1.30;96.10;;;;;;4990203;28;20061;-76
2022/01/10 02:08:50;;;;;;;2.83;1.10;;;1.20;96.00;;;;;;4994968;28;20046;-76
2022/01/10 02:11:19;;;;;;;1.98;0.80;;;1.20;96.00;;;;;;4992817;28;20054;-77
2022/01/10 02:13:46;;;;;;;3.17;0.93;;;1.20;96.10;;;;;;4974282;28;20050;-76
2022/01/10 02:16:39;;;;;;;2.03;0.80;;;1.20;96.10;;;;;;4973472;28;20037;-76
2022/01/10 02:19:09;;;;;;;2.40;0.93;;;1.20;96.10;;;;;;4986454;28;20039;-76
2022/01/10 02:21:36;;;;;;;2.20;0.90;;;1.20;96.10;;;;;;4989776;28;20096;-76
2022/01/10 02:24:05;;;;;;;2.20;1.00;;;1.20;96.10;;;;;;4992925;28;20059;-76
2022/01/10 02:26:33;;;;;;;1.77;0.77;;;1.10;96.10;;;;;;4998152;28;20049;-76
2022/01/10 02:29:00;;;;;;;2.17;0.80;;;1.20;96.10;;;;;;4973935;28;20049;-76
2022/01/10 02:31:27;;;;;;;2.57;1.10;;;1.20;96.10;;;;;;4992344;28;20055;-76
2022/01/10 02:33:57;;;;;;;2.30;0.70;;;1.10;96.10;;;;;;4981874;28;20481;-76
2022/01/10 02:36:26;;;;;;;2.77;1.00;;;1.10;96.10;;;;;;4977862;28;20514;-73
2022/01/10 02:38:56;;;;;;;2.63;1.20;;;1.10;96.10;;;;;;4982750;28;20983;-72
2022/01/10 02:41:31;;;;;;;3.13;0.80;;;1.10;96.10;;;;;;4992242;28;20061;-73
2022/01/10 02:44:01;;;;;;;1.40;0.70;;;1.10;96.10;;;;;;4988510;28;20455;-73
2022/01/10 02:46:33;;;;;;;2.77;1.07;;;1.10;96.10;;;;;;4992122;28;20401;-73
2022/01/10 02:49:11;;;;;;;1.60;0.70;;;1.10;96.10;;;;;;4970067;28;20070;-73
2022/01/10 02:51:39;;;;;;;2.63;0.90;;;1.10;96.10;;;;;;4995924;28;20056;-73
2022/01/10 02:54:07;;;;;;;2.03;1.17;;;1.00;96.00;;;;;;4954002;28;20093;-73
2022/01/10 02:56:45;;;;;;;2.30;0.70;;;1.00;96.00;;;;;;4972253;28;20429;-73
2022/01/10 02:59:13;;;;;;;2.40;0.83;;;1.10;96.10;;;;;;4991042;28;20177;-73
2022/01/10 03:01:40;;;;;;;2.87;1.07;;;1.00;96.10;;;;;;4978673;28;20041;-73
2022/01/10 03:04:08;;;;;;;1.97;0.77;;;1.00;96.10;;;;;;4991607;28;20144;-73
2022/01/10 03:06:36;;;;;;;2.10;0.90;;;1.00;96.10;;;;;;4996468;28;20501;-73
2022/01/10 03:09:06;;;;;;;2.33;0.90;;;1.00;96.10;;;;;;4979962;28;20041;-73
2022/01/10 03:11:34;;;;;;;3.67;1.00;;;1.00;96.10;;;;;;4975794;28;20044;-73
2022/01/10 03:14:01;;;;;;;3.70;1.10;;;1.00;96.00;;;;;;4976924;28;20050;-73
2022/01/10 03:16:29;;;;;;;2.70;0.90;;;0.90;96.00;;;;;;5007200;28;21246;-73
2022/01/10 03:18:56;;;;;;;2.83;0.90;;;0.90;96.10;;;;;;4980208;28;20089;-73
2022/01/10 03:21:23;;;;;;;4.27;1.73;;;0.90;96.10;;;;;;5003361;28;20108;-73
2022/01/10 03:23:51;;;;;;;1.70;0.80;;;0.90;96.10;;;;;;4981501;28;20046;-72
2022/01/10 03:26:21;;;;;;;2.20;0.90;;;0.90;96.10;;;;;;4998200;28;20775;-73
2022/01/10 03:28:48;;;;;;;2.10;1.10;;;0.90;96.10;;;;;;4988597;28;20432;-73
2022/01/10 03:31:16;;;;;;;1.60;0.80;;;0.90;96.10;;;;;;4968454;28;20057;-72
2022/01/10 03:33:45;;;;;;;1.93;1.00;;;0.90;96.10;;;;;;4976627;28;20099;-73
2022/01/10 03:36:12;;;;;;;2.37;1.07;;;0.90;96.10;;;;;;4982998;28;20049;-73
2022/01/10 03:38:39;;;;;;;1.87;0.93;;;1.00;96.10;;;;;;4985292;28;20494;-72
2022/01/10 03:41:06;;;;;;;3.00;1.07;;;1.00;96.10;;;;;;4979408;28;20051;-73
2022/01/10 03:43:33;;;;;;;3.23;1.33;;;1.00;96.20;;;;;;4954661;28;20065;-73
2022/01/10 03:46:01;;;;;;;2.10;1.10;;;1.00;96.20;;;;;;4980733;28;20074;-73
2022/01/10 03:48:28;;;;;;;1.70;0.90;;;1.00;96.10;;;;;;4994891;28;20050;-73
2022/01/10 03:50:57;;;;;;;1.67;0.90;;;1.10;96.10;;;;;;4967371;28;20109;-73
2022/01/10 03:53:26;;;;;;;2.23;0.80;;;1.10;96.10;;;;;;4993460;28;20132;-73
2022/01/10 03:55:54;;;;;;;2.20;1.03;;;1.10;96.10;;;;;;4974185;28;20045;-73
2022/01/10 03:58:21;;;;;;;1.93;0.90;;;1.10;96.00;;;;;;4991112;28;20450;-73
2022/01/10 04:00:48;;;;;;;2.40;0.90;;;1.10;96.00;;;;;;4997177;28;20062;-73
2022/01/10 04:03:15;;;;;;;2.73;0.97;;;1.10;96.00;;;;;;4986604;28;20088;-73
2022/01/10 04:05:53;;;;;;;2.97;0.90;;;1.10;96.00;;;;;;4974670;28;20045;-74
2022/01/10 04:08:20;;;;;;;2.50;1.20;;;1.10;96.00;;;;;;4981129;28;20052;-73
2022/01/10 04:10:47;;;;;;;2.53;0.90;;;1.10;96.00;;;;;;4989785;28;20050;-73
2022/01/10 04:13:14;;;;;;;1.88;0.88;;;1.10;96.00;;;;;;4968120;28;20612;-73
2022/01/10 04:15:42;;;;;;;2.50;1.07;;;1.10;96.00;;;;;;4961333;28;20517;-73
2022/01/10 04:18:12;;;;;;;2.38;1.00;;;1.10;96.00;;;;;;4961145;28;20046;-73
2022/01/10 04:20:42;;;;;;;2.67;1.00;;;1.10;96.00;;;;;;4967829;28;20047;-73
2022/01/10 04:23:10;;;;;;;2.65;0.80;;;1.10;96.00;;;;;;4970521;28;20050;-73
2022/01/10 04:25:42;;;;;;;2.47;1.13;;;1.10;96.00;;;;;;4984282;28;20586;-73
2022/01/10 04:28:10;;;;;;;1.77;0.83;;;1.10;96.00;;;;;;4971976;28;20413;-73
2022/01/10 04:30:37;;;;;;;1.87;0.80;;;1.10;96.30;;;;;;4976243;28;20104;-73
2022/01/10 04:33:05;;;;;;;2.43;1.00;;;1.10;96.10;;;;;;4953946;28;20111;-73
2022/01/10 04:35:32;;;;;;;1.87;0.90;;;1.10;96.10;;;;;;4975145;28;20054;-73
2022/01/10 04:38:00;;;;;;;2.23;1.13;;;1.20;96.10;;;;;;4981814;28;20109;-74
2022/01/10 04:40:27;;;;;;;4.00;1.63;;;1.20;96.10;;;;;;4976728;28;20045;-72
2022/01/10 04:42:55;;;;;;;4.17;1.73;;;1.20;96.00;;;;;;4971920;28;20507;-73
2022/01/10 04:45:23;;;;;;;5.00;1.70;;;1.20;96.00;;;;;;4978003;28;20140;-73
2022/01/10 04:47:50;;;;;;;4.73;1.87;;;1.20;96.00;;;;;;4972654;28;20050;-73
2022/01/10 04:52:47;;;;;;;2.70;1.20;;;1.30;96.00;;;;;;4991492;28;20521;-73
2022/01/10 04:55:15;;;;;;;5.30;1.40;;;1.30;96.00;;;;;;4991590;28;20100;-73
2022/01/10 04:57:42;;;;;;;4.03;1.60;;;1.30;96.00;;;;;;4987961;28;20057;-73
2022/01/10 05:00:12;;;;;;;3.17;1.37;;;1.40;96.30;;;;;;4978130;28;20097;-73
2022/01/10 05:02:47;;;;;;;3.43;1.60;;;1.40;96.00;;;;;;4990063;28;20042;-73
2022/01/10 05:05:14;;;;;;;3.30;1.77;;;1.40;96.00;;;;;;4991125;28;20656;-73
2022/01/10 05:07:42;;;;;;;3.10;1.43;;;1.40;96.00;;;;;;4984536;28;20045;-73
2022/01/10 05:10:10;;;;;;;3.15;1.33;;;1.50;96.00;;;;;;4975998;28;20068;-73
2022/01/10 05:12:40;;;;;;;3.70;1.67;;;1.50;96.00;;;;;;4989746;28;20056;-73
2022/01/10 05:15:07;;;;;;;3.20;1.37;;;1.60;96.00;;;;;;4994216;28;20433;-73
2022/01/10 05:17:34;;;;;;;3.17;1.47;;;1.60;96.00;;;;;;4979972;28;20145;-73
2022/01/10 05:20:04;;;;;;;3.63;1.60;;;1.70;96.00;;;;;;4965041;28;20068;-73
2022/01/10 05:22:31;;;;;;;3.28;1.42;;;1.70;95.90;;;;;;4982198;28;20380;-74
2022/01/10 05:24:58;;;;;;;3.77;1.73;;;1.70;95.90;;;;;;4991035;28;20056;-73
2022/01/10 05:27:26;;;;;;;5.07;2.15;;;1.70;95.90;;;;;;4979111;28;20050;-73
2022/01/10 05:29:56;;;;;;;3.70;2.00;;;1.80;95.90;;;;;;4968750;28;20051;-73
2022/01/10 05:32:23;;;;;;;4.47;2.03;;;1.80;95.90;;;;;;4975687;28;20058;-73
2022/01/10 05:35:25;;;;;;;4.33;1.77;;;1.90;95.90;;;;;;4999163;28;20053;-73
2022/01/10 05:37:52;;;;;;;3.17;1.53;;;1.90;95.90;;;;;;4986915;28;20145;-73
2022/01/10 05:40:19;;;;;;;4.00;1.73;;;1.90;95.80;;;;;;4948131;28;20065;-73
2022/01/10 05:42:47;;;;;;;3.87;1.53;;;1.90;95.80;;;;;;4985893;28;20053;-73
2022/01/10 05:45:14;;;;;;;3.73;1.70;;;2.00;95.80;;;;;;4994493;28;20057;-73
2022/01/10 05:47:44;;;;;;;3.53;1.60;;;2.00;96.00;;;;;;4989585;28;20050;-73
2022/01/10 05:50:18;;;;;;;3.87;1.70;;;2.10;95.80;;;;;;4992933;28;20056;-73
2022/01/10 05:52:47;;;;;;;3.28;1.85;;;2.00;95.70;;;;;;4989168;28;20062;-73
2022/01/10 05:55:16;;;;;;;4.60;2.22;;;2.10;96.00;;;;;;4991663;28;20042;-73
2022/01/10 05:57:47;;;;;;;3.40;1.90;;;2.00;95.70;;;;;;4991774;28;20061;-73
2022/01/10 06:00:17;;;;;;;2.80;1.55;;;2.00;95.70;;;;;;4987891;28;20053;-73
2022/01/10 06:02:44;;;;;;;3.92;2.20;;;2.00;95.70;;;;;;4967659;28;20042;-73
2022/01/10 06:05:24;;;;;;;3.30;1.63;;;2.00;95.70;;;;;;4974820;28;20169;-73
2022/01/10 06:07:52;;;;;;;3.90;2.00;;;2.00;95.80;;;;;;4962621;28;20140;-73
2022/01/10 06:10:19;;;;;;;2.72;1.35;;;2.00;95.80;;;;;;4978954;28;20041;-73
2022/01/10 06:12:46;;;;;;;4.72;2.17;;;2.00;95.80;;;;;;4961114;28;20078;-73
2022/01/10 06:15:16;;;;;;;3.20;1.97;;;2.00;95.80;;;;;;4993864;28;20128;-73
2022/01/10 06:17:45;;;;;;;3.53;1.57;;;2.00;95.80;;;;;;4973312;28;20128;-73
2022/01/10 06:20:12;;;;;;;2.95;1.60;;;2.10;95.80;;;;;;4973070;28;20049;-73
2022/01/10 06:22:40;;;;;;;2.93;1.53;;;2.10;95.70;;;;;;4979570;28;20144;-73
2022/01/10 06:25:14;;;;;;;4.28;1.80;;;2.10;95.70;;;;;;4981992;28;20034;-73
2022/01/10 06:27:41;;;;;;;3.38;1.73;;;2.10;95.70;;;;;;4986507;28;20070;-73
2022/01/10 06:30:09;;;;;;;4.38;1.85;;;2.10;95.70;;;;;;4974098;28;20085;-73
2022/01/10 06:32:40;;;;;;;5.10;1.80;;;2.10;95.70;;;;;;4977270;28;20498;-72
2022/01/10 06:35:11;;;;;;;3.53;1.58;;;2.10;95.70;;;;;;4984665;28;20133;-73
2022/01/10 06:37:39;;;;;;;3.43;1.83;;;2.10;95.70;;;;;;4987519;28;20049;-73
2022/01/10 06:40:08;;;;;;;5.03;2.05;;;2.10;95.70;;;;;;4984649;28;20389;-73
2022/01/10 06:42:40;;;;;;;4.10;2.00;;;2.10;95.70;;;;;;4954844;28;20709;-74
2022/01/10 06:45:09;;;;;;;3.60;2.03;;;2.10;95.70;;;;;;4999020;28;20078;-72
2022/01/10 06:47:37;;;;;;;5.10;2.63;;;2.10;95.70;;;;;;4999802;28;20465;-73
2022/01/10 06:50:06;;;;;;;5.10;2.33;;;2.10;95.60;;;;;;4993609;28;20053;-73
2022/01/10 06:52:38;;;;;;;4.05;2.20;;;2.00;95.60;;;;;;4984862;28;20141;-72
2022/01/10 06:55:06;;;;;;;4.75;2.67;;;2.00;95.60;;;;;;4991739;28;20042;-73
2022/01/10 06:57:33;;;;;;;3.63;1.97;;;2.00;95.70;;;;;;4978406;28;20038;-73
2022/01/10 07:00:03;;;;;;;4.07;2.30;;;1.90;95.70;;;;;;4977233;28;20070;-73
2022/01/10 07:02:35;;;;;;;8.00;2.45;;;1.90;95.80;;;;;;4991258;28;20048;-72
2022/01/10 07:05:04;;;;;;;4.13;1.92;;;1.90;95.80;;;;;;4972786;28;20628;-73
2022/01/10 07:07:31;;;;;;;3.40;1.52;;;1.80;95.80;;;;;;4995906;28;20048;-76
2022/01/10 07:10:12;;;;;;;3.97;1.63;;;1.80;95.80;;;;;;4998932;28;20052;-75
2022/01/10 07:12:40;;;;;;;3.60;1.67;;;1.80;96.10;;;;;;4983545;28;20069;-77
2022/01/10 07:15:08;;;;;;;3.57;1.63;;;1.80;95.80;;;;;;4963168;28;20050;-76
2022/01/10 07:17:35;;;;;;;3.38;1.75;;;1.80;95.80;;;;;;4989079;28;20095;-76
2022/01/10 07:20:05;;;;;;;5.00;1.65;;;1.80;95.80;;;;;;4989081;28;20097;-76
2022/01/10 07:22:42;;;;;;;3.35;1.70;;;1.90;95.90;;;;;;4958896;28;20050;-76
2022/01/10 07:25:10;;;;;;;4.63;1.80;;;1.90;95.80;;;;;;5005983;28;20130;-76
2022/01/10 07:27:37;;;;;;;4.00;2.40;;;1.90;95.80;;;;;;4979432;28;20049;-76
2022/01/10 07:30:05;;;;;;;4.30;1.60;;;1.90;95.70;;;;;;4984060;28;20146;-76
2022/01/10 07:32:32;;;;;;;4.23;2.10;;;1.90;95.70;;;;;;4991719;28;20099;-76
2022/01/10 07:34:59;;;;;;;4.50;2.55;;;1.80;95.70;;;;;;4978784;28;20077;-77
2022/01/10 07:37:26;;;;;;;3.88;2.13;;;1.80;95.80;;;;;;5018430;28;20057;-76
2022/01/10 07:39:53;;;;;;;5.90;2.10;;;1.80;95.80;;;;;;4976738;28;20039;-76
2022/01/10 07:42:20;;;;;;;3.70;1.90;;;1.80;95.80;;;;;;4983094;28;20072;-76
2022/01/10 07:45:01;;;;;;;4.73;2.53;;;1.80;95.80;;;;;;4977426;28;20068;-76
2022/01/10 07:47:28;;;;;;;3.63;1.83;;;1.80;95.90;;;;;;5016038;28;20043;-76
2022/01/10 07:49:55;;;;;;;4.17;2.37;;;1.80;95.90;;;;;;4972911;28;20043;-76
2022/01/10 07:52:22;;;;;;;4.03;1.65;;;1.80;95.90;;;;;;4994557;28;20098;-78
2022/01/10 07:54:49;;;;;;;5.55;1.90;;;1.80;95.90;;;;;;4998386;28;20108;-77
2022/01/10 07:57:19;;;;;;;4.18;2.30;;;1.80;95.90;;;;;;4966951;28;20064;-79
2022/01/10 07:59:46;;;;;;;4.05;1.80;;;1.80;95.90;;;;;;4979523;28;20076;-77
2022/01/10 08:02:15;;;;;;;3.27;1.60;;;1.80;95.90;;;;;;4995293;28;20577;-75
2022/01/10 08:04:43;;;;;;;3.30;1.70;;;1.90;95.90;;;;;;4978632;28;20096;-76
2022/01/10 08:07:10;;;;;;;4.70;1.92;;;1.90;95.90;;;;;;4983438;28;20113;-77
2022/01/10 08:09:37;;;;;;;3.78;2.03;;;1.90;95.90;;;;;;4986869;28;20042;-76
2022/01/10 08:12:04;;;;;;;2.95;1.60;;;1.90;95.90;;;;;;5011354;28;20104;-78
2022/01/10 08:14:32;;;;;;;4.75;2.00;;;2.00;95.90;;;;;;4978670;28;20049;-79
2022/01/10 08:17:00;;;;;;;4.15;2.45;;;2.00;95.90;;;;;;4979101;28;20773;-79
2022/01/10 08:19:30;;;;;;;3.90;2.10;;;2.10;95.90;;;;;;4977370;28;20054;-78
2022/01/10 08:22:07;;;;;;;3.42;1.52;;;2.10;95.90;;;;;;4979712;28;20572;-76
2022/01/10 08:24:56;;;;;;;4.03;1.50;;;2.10;95.80;;;;;;4994587;28;20037;-76
2022/01/10 08:27:23;;;;;;;3.38;1.77;;;2.20;95.80;;;;;;4980235;28;20055;-75
2022/01/10 08:29:53;;;;;;;4.40;1.90;;;2.30;95.80;;;;;;5010113;28;20049;-76
2022/01/10 08:32:20;;;;;;;4.47;2.00;;;2.30;95.80;;;;;;4990915;28;20050;-75
2022/01/10 08:34:47;;;;;;;3.67;2.00;;;2.30;95.70;;;;;;5007069;28;20065;-76
2022/01/10 08:37:14;;;;;;;4.23;1.67;;;2.40;95.70;;;;;;4980453;28;20051;-76
2022/01/10 08:39:41;;;;;;;3.83;1.83;;;2.50;95.70;;;;;;4971918;28;20109;-75
2022/01/10 08:42:08;;;;;;;3.85;2.05;;;2.50;95.70;;;;;;4984474;28;20050;-75
2022/01/10 08:44:36;;;;;;;4.72;2.17;;;2.50;95.70;;;;;;5012818;28;20038;-76
2022/01/10 08:47:03;;;;;;;3.95;2.15;;;2.60;95.70;;;;;;4984414;28;20054;-76
2022/01/10 08:49:30;;;;;;;4.60;1.92;;;2.60;95.60;;;;;;4962946;28;20069;-75
2022/01/10 08:51:57;;;;;;;3.45;1.80;;;2.60;95.60;;;;;;4977423;28;20103;-75
2022/01/10 08:54:25;;;;;;;5.03;2.03;;;2.60;95.60;;;;;;4974438;28;20045;-76
2022/01/10 08:56:53;;;;;;;4.38;2.15;;;2.70;95.60;;;;;;4990443;28;20180;-76
2022/01/10 08:59:21;;;;;;;4.30;2.13;;;2.70;95.60;;;;;;4984449;28;20114;-76
2022/01/10 09:01:57;;;;;;;5.13;2.55;;;2.70;95.60;;;;;;4981318;28;20042;-76
2022/01/10 09:04:25;;;;;;;4.18;2.20;;;2.80;95.90;;;;;;4996930;28;20156;-76
2022/01/10 09:06:58;;;;;;;4.30;2.13;;;2.80;95.60;;;;;;5009200;28;20124;-76
2022/01/10 09:09:25;;;;;;;4.22;2.30;;;2.90;95.60;;;;;;4979627;28;20139;-76
2022/01/10 09:11:52;;;;;;;4.47;2.10;;;2.90;95.50;;;;;;4984265;28;20115;-76
2022/01/10 09:14:19;;;;;;;4.93;2.38;;;3.00;95.50;;;;;;4996988;28;20057;-76
2022/01/10 09:16:46;;;;;;;4.10;1.90;;;3.00;95.50;;;;;;5002547;28;20053;-76
2022/01/10 09:19:13;;;;;;;4.85;2.45;;;3.00;95.40;;;;;;4980745;28;20054;-75
2022/01/10 09:21:40;;;;;;;3.70;2.05;;;3.10;95.40;;;;;;5007206;28;20137;-76
2022/01/10 09:24:08;;;;;;;4.32;2.05;;;3.10;95.40;;;;;;4980471;28;20045;-78
2022/01/10 09:26:35;;;;;;;3.75;1.77;;;3.20;95.50;;;;;;4993877;28;20069;-76
2022/01/10 09:29:08;;;;;;;3.97;2.47;;;3.20;95.50;;;;;;4981800;28;20128;-77
2022/01/10 09:31:36;;;;;;;4.00;2.30;;;3.30;95.40;;;;;;4995223;28;20048;-77
2022/01/10 09:34:28;;;;;;;5.53;2.63;;;3.40;95.40;;;;;;4976755;28;20082;-77
2022/01/10 09:37:00;;;;;;;6.10;3.22;;;3.40;95.40;;;;;;4998523;28;20080;-77
2022/01/10 09:39:31;;;;;;;3.92;2.08;;;3.40;95.30;;;;;;4995750;28;20069;-77
2022/01/10 09:42:01;;;;;;;4.60;2.53;;;3.50;95.30;;;;;;4980183;28;20046;-76
2022/01/10 09:44:28;;;;;;;6.43;2.90;;;3.50;95.30;;;;;;4979002;28;20136;-76
2022/01/10 09:46:55;;;;;;;4.75;2.38;;;3.60;95.30;;;;;;4968080;28;20103;-77
2022/01/10 09:49:23;;;;;;;4.32;2.25;;;3.60;95.30;;;;;;4968295;28;20057;-77
2022/01/10 09:51:50;;;;;;;4.82;2.45;;;3.70;95.30;;;;;;4985707;28;20049;-76
2022/01/10 09:54:18;;;;;;;5.40;2.75;;;3.70;95.20;;;;;;4973034;28;20048;-77
2022/01/10 09:56:47;;;;;;;4.78;2.40;;;3.80;95.20;;;;;;4995463;28;20061;-76
2022/01/10 09:59:15;;;;;;;5.28;2.50;;;3.80;95.50;;;;;;4980537;28;20049;-76
2022/01/10 10:01:43;;;;;;;5.22;2.60;;;3.90;95.20;;;;;;5002142;28;20123;-76
2022/01/10 10:04:12;;;;;;;5.15;2.33;;;3.90;95.20;;;;;;4960670;28;20699;-76
2022/01/10 10:06:39;;;;;;;5.38;2.30;;;3.90;95.20;;;;;;4985426;28;20108;-79
2022/01/10 10:09:08;;;;;;;4.20;2.50;;;4.00;95.20;;;;;;4994298;28;20037;-78
2022/01/10 10:11:41;;;;;;;4.78;2.92;;;4.00;95.10;;;;;;5012872;28;20084;-78
2022/01/10 10:14:09;;;;;;;;;;;4.00;95.10;;;;;;5005592;28;20053;-79
2022/01/10 10:16:41;;;;;;;5.70;2.72;;;4.00;95.10;;;;;;5023366;28;19961;-78
2022/01/10 10:19:08;;;;;;;4.25;2.13;;;4.10;95.20;;;;;;4973803;28;20446;-77
2022/01/10 10:21:35;;;;;;;5.07;2.85;;;4.10;95.10;;;;;;4999375;28;20128;-78
2022/01/10 10:24:04;;;;;;;6.22;3.42;;;4.10;95.10;;;;;;4964106;28;20050;-78
2022/01/10 10:26:31;;;;;;;7.03;4.22;;;4.10;95.00;;;;;;4993399;28;20169;-78
2022/01/10 10:29:00;;;;;;;6.55;4.07;;;4.10;95.00;;;;;;4990837;28;20111;-78
2022/01/10 10:31:34;;;;;;;7.07;4.47;;;4.10;95.00;;;;;;5013088;28;20042;-77
2022/01/10 10:34:04;;;;;;;7.55;3.67;;;4.00;95.00;;;;;;5014100;28;20540;-78
2022/01/10 10:36:34;;;;;;;6.15;3.60;;;4.00;95.00;;;;;;5016395;28;20045;-78
2022/01/10 10:39:10;;;;;;;7.40;3.83;;;4.00;95.10;;;;;;4999689;28;20167;-78
2022/01/10 10:41:39;;;;;;;8.07;4.18;;;3.90;95.10;;;;;;4985563;28;20053;-77
2022/01/10 10:44:06;;;;;;;6.57;3.97;;;3.90;95.10;;;;;;5013762;28;20045;-78
2022/01/10 10:46:35;;;;;;;6.93;4.43;;;3.80;95.10;;;;;;4970477;28;20046;-77
2022/01/10 10:49:04;;;;;;;7.45;3.92;;;3.70;95.40;;;;;;4980768;28;20199;-78
2022/01/10 10:51:34;;;;;;;6.32;3.80;;;3.70;95.20;;;;;;5004599;28;20081;-78
2022/01/10 10:54:04;;;;;;;6.45;4.03;;;3.70;95.20;;;;;;4982587;28;20064;-78
2022/01/10 10:56:37;;;;;;;6.97;3.80;;;3.70;95.30;;;;;;4997565;28;20073;-78
2022/01/10 10:59:06;;;;;;;5.75;3.22;;;3.60;95.30;;;;;;5000360;28;20046;-78
2022/01/10 11:01:37;;;;;;;5.80;3.00;;;3.70;95.30;;;;;;5003769;28;20506;-84
2022/01/10 11:04:06;;;;;;;7.87;4.23;;;3.60;95.30;;;;;;4979188;28;20042;-81
2022/01/10 11:06:34;;;;;;;7.47;4.78;;;3.60;95.30;;;;;;4996799;28;20344;-81
2022/01/10 11:09:09;;;;;;;9.73;5.15;;;3.60;95.30;;;;;;4959962;28;20104;-79
2022/01/10 11:11:36;;;;;;;7.03;4.07;;;3.60;95.30;;;;;;4976004;28;20085;-81
2022/01/10 11:14:09;;;;;;;6.90;3.85;;;3.60;95.30;;;;;;4961945;28;20077;-81
2022/01/10 11:16:44;;;;;;;5.47;2.95;;;3.60;95.30;;;;;;4999806;28;20041;-83
2022/01/10 11:19:21;;;;;;;8.00;4.97;;;3.70;95.40;;;;;;4975790;28;20054;-85
2022/01/10 11:22:06;;;;;;;8.40;4.80;;;3.70;95.40;;;;;;4994963;28;20041;-81
2022/01/10 11:24:56;;;;;;;6.40;3.28;;;3.80;95.30;;;;;;5003321;28;20038;-80
2022/01/10 11:27:34;;;;;;;8.30;4.20;;;3.80;95.30;;;;;;5015135;28;20054;-78
2022/01/10 11:30:28;;;;;;;7.00;3.90;;;3.70;95.30;;;;;;4966387;28;20042;-78
2022/01/10 11:33:08;;;;;;;5.53;2.72;;;3.80;95.30;;;;;;4998044;28;20038;-78
2022/01/10 11:35:56;;;;;;;7.40;3.53;;;3.80;95.30;;;;;;4980624;28;20133;-78
2022/01/10 11:38:39;;;;;;;6.20;3.15;;;3.80;95.30;;;;;;4982779;28;20056;-80
2022/01/10 11:41:09;;;;;;;5.45;2.97;;;3.80;95.30;;;;;;4999468;28;20101;-79
2022/01/10 11:44:02;;;;;;;4.85;2.63;;;3.80;95.40;;;;;;4996158;28;20093;-79
2022/01/10 11:46:48;;;;;;;6.15;3.15;;;3.80;95.40;;;;;;5023191;28;20054;-80
2022/01/10 11:49:17;;;;;;;7.38;3.47;;;3.80;95.30;;;;;;4999398;28;20561;-81
2022/01/10 11:51:50;;;;;;;7.07;3.38;;;3.80;95.30;;;;;;4976523;28;20073;-79
2022/01/10 11:54:42;;;;;;;6.55;4.03;;;3.90;95.40;;;;;;4960890;28;20150;-78
2022/01/10 11:57:15;;;;;;;5.25;3.03;;;3.90;95.40;;;;;;4978403;28;20501;-79
2022/01/10 11:59:53;;;;;;;7.55;3.78;;;3.90;95.40;;;;;;4997522;28;20130;-79
2022/01/10 12:02:24;;;;;;;6.40;3.30;;;3.90;95.30;;;;;;4979904;28;20049;-80
2022/01/10 12:05:00;;;;;;;5.78;2.72;;;3.90;95.30;;;;;;4998261;28;20666;-82
2022/01/10 12:07:28;;;;;;;5.88;3.10;;;4.00;95.40;;;;;;4995992;28;20050;-78
2022/01/10 12:10:02;;;;;;;3.85;2.28;;;4.00;95.40;;;;;;4983385;28;20050;-77
2022/01/10 12:12:31;;;;;;;4.18;2.15;;;4.00;95.40;;;;;;4998039;28;20042;-77
2022/01/10 12:14:58;;;;;;;5.20;2.67;;;4.00;95.40;;;;;;4998263;28;20054;-78
2022/01/10 12:17:31;;;;;;;9.02;5.78;;;4.00;95.30;;;;;;4960848;28;20050;-78
2022/01/10 12:20:01;;;;;;;11.35;6.53;;;4.00;95.30;;;;;;4975135;28;20783;-77
2022/01/10 12:22:28;;;;;;;13.15;6.97;;;4.10;95.40;;;;;;4991657;28;20077;-78
2022/01/10 12:24:55;;;;;;;15.27;7.22;;;4.20;95.30;;;;;;4994592;28;20125;-77
2022/01/10 12:27:22;;;;;;;16.45;9.32;;;4.20;95.30;;;;;;4995567;28;20054;-78
2022/01/10 12:29:50;;;;;;;12.35;7.72;;;4.30;95.30;;;;;;4998687;28;20441;-77
2022/01/10 12:32:16;;;;;;;14.25;9.30;;;4.30;95.30;;;;;;4996212;28;20117;-78
2022/01/10 12:34:45;;;;;;;17.40;9.55;;;4.40;95.30;;;;;;4995211;28;20053;-73
2022/01/10 12:37:12;;;;;;;15.25;8.93;;;4.40;95.30;;;;;;4981538;28;20507;-72
2022/01/10 12:39:40;;;;;;;14.20;8.43;;;4.50;95.20;;;;;;4993090;28;20573;-74
2022/01/10 12:42:08;;;;;;;12.27;8.88;;;4.50;95.20;;;;;;4980682;28;20046;-73
2022/01/10 12:44:35;;;;;;;12.63;8.63;;;4.50;95.20;;;;;;4987936;28;20134;-73
2022/01/10 12:47:03;;;;;;;14.70;8.55;;;4.50;95.20;;;;;;4977007;28;20137;-73
2022/01/10 12:49:30;;;;;;;12.63;7.93;;;4.60;95.20;;;;;;5008664;28;20082;-73
2022/01/10 12:51:58;;;;;;;15.05;8.63;;;4.60;95.20;;;;;;4995656;28;20471;-72
2022/01/10 12:54:30;;;;;;;16.48;10.68;;;4.70;95.20;;;;;;4992874;28;20054;-73
2022/01/10 12:57:00;;;;;;;13.43;9.85;;;4.70;95.20;;;;;;4977394;28;20077;-73
2022/01/10 12:59:29;;;;;;;13.93;9.27;;;4.80;95.20;;;;;;4978165;28;20053;-76
2022/01/10 13:01:58;;;;;;;16.42;9.05;;;4.80;95.10;;;;;;4996568;28;20081;-76
2022/01/10 13:04:29;;;;;;;14.98;8.90;;;4.80;95.10;;;;;;4960827;28;20158;-76
2022/01/10 13:06:58;;;;;;;13.57;8.07;;;4.90;95.10;;;;;;4993721;28;20050;-76
2022/01/10 13:09:48;;;;;;;11.77;6.75;;;4.90;95.10;;;;;;4969893;28;20074;-76
2022/01/10 13:12:28;;;;;;;10.43;6.35;;;4.90;95.10;;;;;;4979896;28;20038;-75
2022/01/10 13:15:30;;;;;;;8.00;5.00;;;4.90;95.10;;;;;;4982837;28;20130;-75
2022/01/10 13:18:00;;;;;;;8.25;4.78;;;4.90;95.10;;;;;;4995989;28;20504;-74
2022/01/10 13:20:33;;;;;;;7.78;4.18;;;4.80;95.10;;;;;;4993871;28;21227;-74
2022/01/10 13:23:09;;;;;;;7.22;4.72;;;4.80;95.10;;;;;;4975291;28;20065;-74
2022/01/10 13:25:37;;;;;;;7.32;4.03;;;4.80;95.20;;;;;;4996599;28;20100;-75
2022/01/10 13:28:09;;;;;;;6.40;2.88;;;4.80;95.10;;;;;;4997860;28;20069;-76